createdAt,value
2023-05-19T00:01:18.126Z,99279.95
2023-05-19T00:06:27.143Z,99273.40
2023-05-19T00:11:36.545Z,99269.31
2023-05-19T00:16:44.143Z,99264.50
2023-05-19T00:21:51.402Z,99262.37
2023-05-19T00:26:58.517Z,99261.98
2023-05-19T00:32:05.856Z,99256.61
2023-05-19T00:37:12.974Z,99252.67
2023-05-19T00:42:20.593Z,99258.64
2023-05-19T00:47:28.230Z,99250.15
2023-05-19T00:52:35.647Z,99243.36
2023-05-19T00:57:43.866Z,99242.10
2023-05-19T01:02:51.546Z,99238.38
2023-05-19T01:07:58.593Z,99233.67
2023-05-19T01:13:06.565Z,99231.46
2023-05-19T01:18:16.274Z,99232.95
2023-05-19T01:23:36.969Z,99236.27
2023-05-19T01:29:00.910Z,99229.48
2023-05-19T01:34:08.471Z,99225.78
2023-05-19T01:39:16.458Z,99222.02
2023-05-19T01:44:24.558Z,99210.56
2023-05-19T01:49:31.858Z,99221.76
2023-05-19T01:54:39.001Z,99218.21
2023-05-19T01:59:53.917Z,99213.65
2023-05-19T02:05:04.938Z,99214.29
2023-05-19T02:10:13.302Z,99212.86
2023-05-19T02:15:23.247Z,99203.95
2023-05-19T02:20:30.885Z,99194.56
2023-05-19T02:25:38.508Z,99187.71
2023-05-19T02:30:45.783Z,99181.89
2023-05-19T02:35:53.354Z,99178.88
2023-05-19T02:41:01.148Z,99171.08
2023-05-19T02:46:08.468Z,99167.05
2023-05-19T02:51:15.861Z,99165.63
2023-05-19T02:56:23.084Z,99166.91
2023-05-19T03:01:30.230Z,99172.65
2023-05-19T03:06:38.055Z,99185.05
2023-05-19T03:11:45.091Z,99196.09
2023-05-19T03:16:52.787Z,99194.90
2023-05-19T03:21:59.959Z,99195.77
2023-05-19T03:27:07.261Z,99191.42
2023-05-19T03:32:14.417Z,99189.63
2023-05-19T03:37:22.081Z,99192.30
2023-05-19T03:42:29.692Z,99195.13
2023-05-19T03:47:37.061Z,99199.55
2023-05-19T03:52:47.100Z,99201.63
2023-05-19T03:57:54.530Z,99194.37
2023-05-19T04:03:01.978Z,99190.18
2023-05-19T04:08:09.319Z,99190.80
2023-05-19T04:13:16.650Z,99195.38
2023-05-19T04:18:25.482Z,99204.20
2023-05-19T04:23:33.549Z,99203.82
2023-05-19T04:28:42.731Z,99206.89
2023-05-19T04:33:50.181Z,99207.45
2023-05-19T04:39:03.072Z,99200.91
2023-05-19T04:44:11.076Z,99199.26
2023-05-19T04:49:21.520Z,99203.27
2023-05-19T04:54:29.008Z,99207.05
2023-05-19T04:59:36.459Z,99215.02
2023-05-19T05:04:44.497Z,99217.54
2023-05-19T05:09:51.768Z,99220.95
2023-05-19T05:14:59.583Z,99219.19
2023-05-19T05:20:07.575Z,99214.93
2023-05-19T05:25:16.730Z,99215.26
2023-05-19T05:30:24.052Z,99224.48
2023-05-19T05:35:31.426Z,99219.35
2023-05-19T05:40:38.738Z,99217.69
2023-05-19T05:45:46.054Z,99221.24
2023-05-19T05:50:54.910Z,99223.92
2023-05-19T05:56:02.191Z,99216.36
2023-05-19T06:01:11.954Z,99222.65
2023-05-19T06:06:18.845Z,99225.96
2023-05-19T06:11:26.613Z,99235.83
2023-05-19T06:16:33.676Z,99244.33
2023-05-19T06:21:43.254Z,99243.95
2023-05-19T06:26:50.979Z,99243.63
2023-05-19T06:31:58.615Z,99243.63
2023-05-19T06:37:06.362Z,99248.67
2023-05-19T06:42:13.770Z,99246.95
2023-05-19T06:47:21.122Z,99248.91
2023-05-19T06:52:28.348Z,99247.34
2023-05-19T06:57:36.498Z,99249.15
2023-05-19T07:02:43.807Z,99247.27
2023-05-19T07:07:50.914Z,99248.59
2023-05-19T07:12:58.553Z,99241.19
2023-05-19T07:18:06.058Z,99237.39
2023-05-19T07:23:13.721Z,99234.09
2023-05-19T07:28:22.448Z,99227.87
2023-05-19T07:33:29.801Z,99223.61
2023-05-19T07:38:37.089Z,99235.90
2023-05-19T07:43:44.345Z,99237.09
2023-05-19T07:48:51.652Z,99241.73
2023-05-19T07:53:58.890Z,99241.59
2023-05-19T07:59:06.193Z,99241.59
2023-05-19T08:04:14.584Z,99240.73
2023-05-19T08:09:22.047Z,99240.88
2023-05-19T08:14:29.598Z,99243.88
2023-05-19T08:19:36.996Z,99241.90
2023-05-19T08:24:45.130Z,99239.53
2023-05-19T08:29:52.711Z,99241.59
2023-05-19T08:35:00.201Z,99249.70
2023-05-19T08:40:09.271Z,99257.59
2023-05-19T08:45:16.778Z,99261.85
2023-05-19T08:50:26.556Z,99259.25
2023-05-19T08:55:38.596Z,99258.94
2023-05-19T09:00:46.143Z,99259.33
2023-05-19T09:05:53.667Z,99252.08
2023-05-19T09:11:01.117Z,99251.20
2023-05-19T09:16:09.186Z,99252.48
2023-05-19T09:21:16.734Z,99251.45
2023-05-19T09:26:24.157Z,99255.15
2023-05-19T09:31:34.283Z,99259.49
2023-05-19T09:36:43.610Z,99265.71
2023-05-19T09:41:53.013Z,99263.74
2023-05-19T09:47:00.287Z,99263.43
2023-05-19T09:52:07.939Z,99262.73
2023-05-19T09:57:14.826Z,99260.84
2023-05-19T10:02:24.882Z,99258.39
2023-05-19T10:07:32.766Z,99252.95
2023-05-19T10:12:40.205Z,99251.14
2023-05-19T10:17:47.788Z,99250.58
2023-05-19T10:22:55.534Z,99247.59
2023-05-19T10:28:04.154Z,99244.75
2023-05-19T10:33:14.282Z,99242.06
2023-05-19T10:38:26.330Z,99245.15
2023-05-19T10:43:40.566Z,99243.80
2023-05-19T10:48:48.187Z,99240.49
2023-05-19T10:53:55.677Z,99231.98
2023-05-19T10:59:03.530Z,99233.33
2023-05-19T11:04:12.796Z,99230.56
2023-05-19T11:09:28.362Z,99226.30
2023-05-19T11:14:41.868Z,99233.32
2023-05-19T11:19:55.959Z,99231.12
2023-05-19T11:25:03.068Z,99227.96
2023-05-19T11:30:15.708Z,99231.36
2023-05-19T11:35:23.090Z,99237.11
2023-05-19T11:40:30.733Z,99236.33
2023-05-19T11:45:37.888Z,99231.59
2023-05-19T11:50:45.753Z,99233.09
2023-05-19T11:55:53.190Z,99232.54
2023-05-19T12:01:05.916Z,99233.17
2023-05-19T12:06:17.950Z,99235.93
2023-05-19T12:11:25.778Z,99233.32
2023-05-19T12:16:38.979Z,99231.83
2023-05-19T12:21:46.350Z,99229.61
2023-05-19T12:26:53.621Z,99225.98
2023-05-19T12:32:00.998Z,99224.43
2023-05-19T12:37:08.255Z,99222.52
2023-05-19T12:42:15.212Z,99218.20
2023-05-19T12:47:23.112Z,99215.77
2023-05-19T12:52:30.846Z,99215.27
2023-05-19T12:57:39.017Z,99210.17
2023-05-19T13:02:59.511Z,99217.88
2023-05-19T13:08:09.449Z,99218.27
2023-05-19T13:13:17.095Z,99207.55
2023-05-19T13:18:24.812Z,99215.59
2023-05-19T13:23:32.123Z,99211.89
2023-05-19T13:28:39.218Z,99211.02
2023-05-19T13:33:46.588Z,99212.37
2023-05-19T13:38:53.673Z,99209.05
2023-05-19T13:44:01.444Z,99199.76
2023-05-19T13:49:09.337Z,99198.96
2023-05-19T13:54:16.486Z,99190.86
2023-05-19T13:59:23.847Z,99190.93
2023-05-19T14:04:31.208Z,99188.56
2023-05-19T14:09:38.618Z,99196.77
2023-05-19T14:14:45.847Z,99204.34
2023-05-19T14:19:52.825Z,99202.05
2023-05-19T14:25:00.773Z,99202.52
2023-05-19T14:30:08.820Z,99210.88
2023-05-19T14:35:15.925Z,99212.77
2023-05-19T14:40:23.284Z,99214.51
2023-05-19T14:45:30.833Z,99217.02
2023-05-19T14:50:38.136Z,99217.88
2023-05-19T14:55:45.515Z,99217.18
2023-05-19T15:00:52.847Z,99217.17
2023-05-19T15:06:00.428Z,99221.20
2023-05-19T15:11:07.774Z,99216.30
2023-05-19T15:16:17.027Z,99215.21
2023-05-19T15:21:25.945Z,99218.29
2023-05-19T15:26:33.289Z,99211.19
2023-05-19T15:31:40.450Z,99210.25
2023-05-19T15:36:47.711Z,99210.48
2023-05-19T15:41:55.241Z,99212.55
2023-05-19T15:47:02.890Z,99211.98
2023-05-19T15:52:10.426Z,99206.22
2023-05-19T15:57:17.728Z,99203.23
2023-05-19T16:02:25.158Z,99205.12
2023-05-19T16:07:32.420Z,99204.65
2023-05-19T16:12:39.812Z,99204.98
2023-05-19T16:17:47.046Z,99207.02
2023-05-19T16:22:54.099Z,99210.72
2023-05-19T16:28:01.123Z,99215.52
2023-05-19T16:33:08.237Z,99218.84
2023-05-19T16:38:15.639Z,99224.90
2023-05-19T16:43:22.996Z,99230.58
2023-05-19T16:48:30.278Z,99227.27
2023-05-19T16:53:37.306Z,99221.98
2023-05-19T16:58:44.529Z,99232.32
2023-05-19T17:03:51.965Z,99228.45
2023-05-19T17:08:59.369Z,99223.98
2023-05-19T17:14:08.518Z,99229.33
2023-05-19T17:19:16.565Z,99228.06
2023-05-19T17:24:23.626Z,99228.23
2023-05-19T17:29:30.994Z,99227.59
2023-05-19T17:34:39.586Z,99226.58
2023-05-19T17:39:46.656Z,99225.15
2023-05-19T17:44:54.127Z,99228.39
2023-05-19T17:50:01.667Z,99232.48
2023-05-19T17:55:10.041Z,99234.29
2023-05-19T18:00:18.010Z,99238.95
2023-05-19T18:05:25.893Z,99244.21
2023-05-19T18:10:34.212Z,99247.21
2023-05-19T18:15:41.733Z,99252.48
2023-05-19T18:20:49.013Z,99254.55
2023-05-19T18:25:56.279Z,99256.13
2023-05-19T18:31:04.242Z,99258.33
2023-05-19T18:36:11.721Z,99268.48
2023-05-19T18:41:19.208Z,99264.71
2023-05-19T18:46:26.748Z,99267.31
2023-05-19T18:51:36.333Z,99271.33
2023-05-19T18:56:43.561Z,99277.56
2023-05-19T19:01:50.686Z,99276.54
2023-05-19T19:06:57.954Z,99285.35
2023-05-19T19:12:05.410Z,99288.98
2023-05-19T19:17:12.604Z,99289.05
2023-05-19T19:22:19.995Z,99295.91
2023-05-19T19:27:31.654Z,99290.55
2023-05-19T19:32:39.628Z,99285.83
2023-05-19T19:37:47.304Z,99285.28
2023-05-19T19:42:54.820Z,99292.60
2023-05-19T19:48:02.507Z,99286.06
2023-05-19T19:53:10.031Z,99283.78
2023-05-19T19:58:17.449Z,99281.57
2023-05-19T20:03:24.754Z,99284.80
2023-05-19T20:08:32.079Z,99279.91
2023-05-19T20:13:39.388Z,99282.98
2023-05-19T20:18:46.628Z,99283.14
2023-05-19T20:23:53.759Z,99282.05
2023-05-19T20:29:00.993Z,99276.77
2023-05-19T20:34:08.471Z,99268.02
2023-05-19T20:39:15.677Z,99272.66
2023-05-19T20:44:22.974Z,99270.61
2023-05-19T20:49:30.291Z,99265.96
2023-05-19T20:54:37.537Z,99260.38
2023-05-19T20:59:44.671Z,99268.17
2023-05-19T21:04:51.953Z,99270.22
2023-05-19T21:09:59.439Z,99271.09
2023-05-19T21:15:06.630Z,99271.10
2023-05-19T21:20:14.399Z,99273.30
2023-05-19T21:25:21.798Z,99272.36
2023-05-19T21:30:29.221Z,99275.58
2023-05-19T21:35:37.199Z,99275.11
2023-05-19T21:40:44.398Z,99272.59
2023-05-19T21:45:51.896Z,99272.59
2023-05-19T21:50:59.041Z,99269.98
2023-05-19T21:56:06.641Z,99268.40
2023-05-19T22:01:14.715Z,99265.27
2023-05-19T22:06:22.117Z,99271.95
2023-05-19T22:11:29.191Z,99275.58
2023-05-19T22:16:36.454Z,99276.14
2023-05-19T22:21:43.844Z,99277.70
2023-05-19T22:26:51.487Z,99275.52
2023-05-19T22:31:58.743Z,99277.31
2023-05-19T22:37:06.305Z,99272.59
2023-05-19T22:42:13.545Z,99272.66
2023-05-19T22:47:20.820Z,99272.58
2023-05-19T22:52:28.431Z,99267.70
2023-05-19T22:57:35.679Z,99264.95
2023-05-19T23:02:44.260Z,99264.07
2023-05-19T23:07:51.692Z,99262.02
2023-05-19T23:12:58.796Z,99259.90
2023-05-19T23:18:09.010Z,99259.52
2023-05-19T23:23:16.412Z,99257.14
2023-05-19T23:28:23.651Z,99253.59
2023-05-19T23:33:30.706Z,99250.84
2023-05-19T23:38:38.246Z,99253.59
2023-05-19T23:43:45.598Z,99248.95
2023-05-19T23:48:52.799Z,99242.72
2023-05-19T23:54:00.278Z,99241.07
2023-05-19T23:59:07.307Z,99234.23
